Etusivu
METAR-TAF:

METAR-TAF

Lentoasemat :

Kugaarukin lentoasema

Kugaaruk, Nunavut, Kanada

Leveyspiiri: 68-32N, Pituuspiiri: 089-49W, korkeus merenpinnasta: 15 m

Tämänhetkinen sää

Tämä raportti tehtiin 1 tunti ja 3 minuuttia sitten, kello 14.09 UTC
Tuuli 8 kn lännestä
Lämpötila -33°C
Kosteus 74%
Ilmanpaine 1006 hPa
Näkyvyys: 24.1 km
Muutamia pilviä 22000 ft:n korkeudessa

METAR: CYBB 201409Z 27008KT 15SM FEW220 M33/M36 A2972 RMK CI2 0.0/SNOW CVR/MEDIUM PACK SLP067

Aika: 08:12 (15:12 UTC)

Sääennuste

Tämä raportti tehtiin 20 tuntia ja 34 minuuttia sitten, kello 18.38 UTC
Ennuste voimassa 19. päivästä klo 19 UTC - 19. päivään klo 24 UTC
Tuuli 10 kn lounaasta
Näkyvyys: 10 km
Muutamia pilviä 24000 ft:n korkeudessa

TAF: CYBB 191838Z 1919/1924 23010KT P6SM FEW240 RMK NXT FCST WILL BE ISSUED AT 201445Z

Säähavainnot ja -ennusteet yli 4000 lentoasemalta (METAR- ja TAF-raportit).

Käytössä olevat sääasemat on merkitty karttaan keltaisilla ja punaisilla pisteillä.

Aseta hiiri pisteen päälle nähdäksesi sääaseman nimen.

Klikkaa sitten nähdäksesi säähavainnot ja -ennusteet.

Kartan vaihtaminen: klikkaa mustalla rastilla varustettuja vihreitä pisteitä, niin voit zoomata sisään; viivalla varustettua vihreää pistettä, niin voit zoomata ulos tai vihreitä nuolia, niin pääset viereisille kartoille.


METAR-TAF: